Somers, Connecticut
Current Conditions -  °F | °C
As of 12:51 AM on Monday 20 Oct 2014 (Local Time) from KBDL Reporting Station
Few Clouds Few Clouds  
Wind Chill: 33°   Ceiling: Unl
Heat Index: 37°   Visibility: 10mi
Dew Point: 27°   Wind: 5mph
Humidity: 67%   Direction: 240°WSW
Pressure: 30.02"   Gusts: NA
Location:  41.99°N, 72.45°W
Report Text: KBDL 200451Z 24004KT 10SM FEW250 03/M03 A3002 RMK AO2 SLP167 T00281028 401280028
Loading
Personal Weather Stations






























Interactive Weather Map
Tropical Storm Tracking
New forecast layout! Learn more

10-Day Weather Forecast

Advertisements
Track Severe Weather on mobile